Terminal Aerodrome Forecast
Issued by NWS

Home | Current Version | Previous Version | Text Only | Print | Product List | Glossary On
Versions: 1 2 3 4 5 6 7 8 9 10 11 12 13 14 15 16 17 18 19 20 21 22 23 24 25 26 27 28 29 30 31 32 33 34 35 36 37 38 39 40 41 42 43 44 45 46 47 48
170
FTUS43 KGRB 211740
TAFRHI
TAF
KRHI 211740Z 2118/2218 14008KT P6SM SCT025
      TEMPO 2118/2122 BKN025
     FM212200 13007KT P6SM BKN020
     FM220100 15006KT P6SM BKN015
     FM220400 17006KT 4SM BR VCTS BKN012 BKN035CB WS012/21035KT
     FM220800 18005KT 4SM BR SCT006 BKN012 WS012/21035KT
      TEMPO 2209/2213 2SM BR BKN006
     FM221400 20009G16KT P6SM SCT015 SCT035=

USA.gov is the U.S. government's official web portal to all federal, state and local government web resources and services.